createdAt,value
2023-02-27T00:00:14.970Z,0.70
2023-02-27T00:03:00.712Z,0.60
2023-02-27T00:05:46.164Z,0.70
2023-02-27T00:08:33.097Z,0.55
2023-02-27T00:11:20.248Z,0.68
2023-02-27T00:14:06.082Z,0.90
2023-02-27T00:16:51.890Z,1.00
2023-02-27T00:19:37.338Z,0.73
2023-02-27T00:22:22.848Z,1.20
2023-02-27T00:25:10.530Z,1.27
2023-02-27T00:27:56.946Z,1.90
2023-02-27T00:30:42.464Z,1.50
2023-02-27T00:33:28.326Z,1.10
2023-02-27T00:36:13.903Z,1.00
2023-02-27T00:38:59.536Z,1.15
2023-02-27T00:41:44.926Z,0.70
2023-02-27T00:44:30.580Z,0.70
2023-02-27T00:47:16.201Z,0.88
2023-02-27T00:50:01.949Z,0.73
2023-02-27T00:52:47.762Z,0.57
2023-02-27T00:55:33.338Z,0.80
2023-02-27T00:58:18.748Z,0.60
2023-02-27T01:01:04.141Z,0.70
2023-02-27T01:03:49.534Z,0.68
2023-02-27T01:06:35.671Z,0.80
2023-02-27T01:09:21.055Z,0.70
2023-02-27T01:12:06.681Z,0.55
2023-02-27T01:14:51.968Z,0.70
2023-02-27T01:17:38.012Z,0.90
2023-02-27T01:20:23.408Z,0.90
2023-02-27T01:23:09.208Z,0.70
2023-02-27T01:25:54.431Z,0.60
2023-02-27T01:28:39.773Z,1.00
2023-02-27T01:31:25.534Z,0.77
2023-02-27T01:34:12.956Z,0.47
2023-02-27T01:36:59.427Z,0.60
2023-02-27T01:39:44.638Z,0.82
2023-02-27T01:42:30.027Z,0.57
2023-02-27T01:45:30.270Z,0.70
2023-02-27T01:48:27.853Z,0.70
2023-02-27T01:51:19.480Z,0.57
2023-02-27T01:54:08.371Z,0.70
2023-02-27T01:56:54.008Z,0.50
2023-02-27T01:59:42.060Z,0.70
2023-02-27T02:02:33.281Z,0.90
2023-02-27T02:05:20.528Z,0.90
2023-02-27T02:08:06.825Z,0.80
2023-02-27T02:10:53.449Z,4.80
2023-02-27T02:13:40.890Z,3.03
2023-02-27T02:16:42.930Z,2.13
2023-02-27T02:19:47.309Z,1.80
2023-02-27T02:22:32.427Z,1.00
2023-02-27T02:25:39.979Z,0.90
2023-02-27T02:28:54.714Z,0.70
2023-02-27T02:32:20.014Z,0.70
2023-02-27T02:35:36.333Z,0.75
2023-02-27T02:38:59.477Z,0.90
2023-02-27T02:41:59.467Z,0.80
2023-02-27T02:44:57.877Z,0.80
2023-02-27T02:47:52.139Z,1.13
2023-02-27T02:51:01.613Z,0.70
2023-02-27T02:54:02.070Z,0.80
2023-02-27T02:57:02.665Z,0.80
2023-02-27T02:59:59.823Z,0.70
2023-02-27T03:02:58.011Z,0.70
2023-02-27T03:05:52.162Z,0.80
2023-02-27T03:08:46.372Z,0.60
2023-02-27T03:11:36.186Z,0.93
2023-02-27T03:14:47.516Z,0.77
2023-02-27T03:17:46.633Z,0.70
2023-02-27T03:20:42.810Z,0.70
2023-02-27T03:23:35.313Z,0.85
2023-02-27T03:26:27.636Z,0.60
2023-02-27T03:29:22.661Z,1.00
2023-02-27T03:32:38.340Z,0.70
2023-02-27T03:35:29.351Z,0.60
2023-02-27T03:38:18.970Z,0.70
2023-02-27T03:41:14.405Z,0.60
2023-02-27T03:47:09.954Z,0.70
2023-02-27T03:49:56.178Z,0.90
2023-02-27T03:52:41.808Z,0.55
2023-02-27T03:55:35.203Z,0.93
2023-02-27T03:58:20.909Z,0.80
2023-02-27T04:01:06.431Z,0.77
2023-02-27T04:03:59.286Z,0.95
2023-02-27T04:07:25.480Z,1.10
2023-02-27T04:10:23.383Z,1.00
2023-02-27T04:13:21.687Z,0.90
2023-02-27T04:16:34.871Z,0.80
2023-02-27T04:22:35.072Z,1.20
2023-02-27T04:25:58.714Z,1.08
2023-02-27T04:28:43.797Z,0.98
2023-02-27T04:31:38.937Z,1.17
2023-02-27T04:34:47.677Z,1.17
2023-02-27T04:37:59.660Z,1.10
2023-02-27T04:40:57.717Z,1.20
2023-02-27T04:43:45.462Z,1.38
2023-02-27T04:46:34.094Z,1.35
2023-02-27T04:49:25.655Z,1.10
2023-02-27T04:52:14.039Z,1.10
2023-02-27T04:55:01.544Z,1.23
2023-02-27T04:58:09.189Z,1.52
2023-02-27T05:01:02.098Z,1.30
2023-02-27T05:03:51.054Z,1.52
2023-02-27T05:06:39.798Z,1.20
2023-02-27T05:09:40.728Z,1.15
2023-02-27T05:12:33.290Z,1.90
2023-02-27T05:18:24.387Z,1.20
2023-02-27T05:21:35.440Z,1.00
2023-02-27T05:24:38.731Z,1.40
2023-02-27T05:27:34.541Z,1.25
2023-02-27T05:30:36.271Z,1.10
2023-02-27T05:33:27.515Z,0.98
2023-02-27T05:36:18.523Z,1.30
2023-02-27T05:39:08.220Z,1.02
2023-02-27T05:42:01.934Z,1.40
2023-02-27T05:44:53.715Z,1.27
2023-02-27T05:47:45.415Z,1.50
2023-02-27T05:50:34.106Z,0.80
2023-02-27T05:53:22.233Z,1.50
2023-02-27T05:56:08.826Z,1.30
2023-02-27T05:59:09.957Z,1.27
2023-02-27T06:01:55.736Z,0.95
2023-02-27T06:04:41.913Z,1.10
2023-02-27T06:07:30.602Z,1.40
2023-02-27T06:10:17.891Z,1.15
2023-02-27T06:13:03.183Z,1.23
2023-02-27T06:15:49.180Z,1.13
2023-02-27T06:18:34.750Z,1.20
2023-02-27T06:21:19.945Z,1.27
2023-02-27T06:24:05.814Z,1.38
2023-02-27T06:26:51.145Z,1.30
2023-02-27T06:29:36.493Z,1.35
2023-02-27T06:32:25.252Z,0.90
2023-02-27T06:35:10.565Z,1.25
2023-02-27T06:37:56.600Z,1.30
2023-02-27T06:40:42.368Z,1.45
2023-02-27T06:43:27.707Z,1.02
2023-02-27T06:46:13.191Z,1.25
2023-02-27T06:48:59.882Z,1.33
2023-02-27T06:51:45.391Z,1.35
2023-02-27T06:54:30.887Z,1.10
2023-02-27T06:57:16.556Z,1.15
2023-02-27T07:00:02.152Z,1.08
2023-02-27T07:02:47.667Z,0.90
2023-02-27T07:05:33.317Z,1.08
2023-02-27T07:08:18.673Z,1.10
2023-02-27T07:11:04.246Z,1.20
2023-02-27T07:13:49.940Z,1.40
2023-02-27T07:16:35.473Z,1.30
2023-02-27T07:19:24.823Z,1.30
2023-02-27T07:22:10.212Z,1.10
2023-02-27T07:24:55.767Z,1.40
2023-02-27T07:27:41.259Z,0.90
2023-02-27T07:30:26.662Z,1.25
2023-02-27T07:33:12.140Z,1.55
2023-02-27T07:35:57.454Z,1.30
2023-02-27T07:38:42.811Z,1.33
2023-02-27T07:41:31.048Z,1.50
2023-02-27T07:44:18.952Z,1.10
2023-02-27T07:47:04.426Z,1.63
2023-02-27T07:49:50.016Z,1.00
2023-02-27T07:52:35.477Z,1.10
2023-02-27T07:55:21.126Z,1.50
2023-02-27T07:58:06.734Z,1.20
2023-02-27T08:00:54.239Z,1.08
2023-02-27T08:03:39.547Z,1.30
2023-02-27T08:06:25.835Z,1.02
2023-02-27T08:09:11.538Z,1.15
2023-02-27T08:11:58.513Z,1.08
2023-02-27T08:14:44.030Z,1.15
2023-02-27T08:17:30.746Z,1.00
2023-02-27T08:20:16.838Z,1.10
2023-02-27T08:23:02.536Z,1.00
2023-02-27T08:25:48.034Z,1.35
2023-02-27T08:28:33.586Z,1.00
2023-02-27T08:31:19.152Z,1.30
2023-02-27T08:34:10.306Z,1.10
2023-02-27T08:36:56.227Z,1.05
2023-02-27T08:39:41.719Z,1.10
2023-02-27T08:42:27.259Z,1.27
2023-02-27T08:45:12.402Z,1.35
2023-02-27T08:47:57.932Z,1.20
2023-02-27T08:50:43.672Z,1.08
2023-02-27T08:53:29.822Z,1.30
2023-02-27T08:56:14.992Z,1.08
2023-02-27T08:59:00.783Z,1.20
2023-02-27T09:01:46.030Z,1.10
2023-02-27T09:04:31.413Z,1.00
2023-02-27T09:07:17.118Z,1.08
2023-02-27T09:10:04.702Z,0.73
2023-02-27T09:12:50.298Z,0.70
2023-02-27T09:15:35.655Z,1.30
2023-02-27T09:18:22.288Z,1.00
2023-02-27T09:21:07.634Z,0.68
2023-02-27T09:23:53.293Z,0.90
2023-02-27T09:26:45.186Z,0.93
2023-02-27T09:32:16.695Z,0.73
2023-02-27T09:35:02.017Z,1.00
2023-02-27T09:37:49.427Z,0.98
2023-02-27T09:40:40.942Z,1.10
2023-02-27T09:43:33.879Z,1.15
2023-02-27T09:46:22.630Z,0.82
2023-02-27T09:49:15.415Z,1.10
2023-02-27T09:52:00.856Z,0.95
2023-02-27T09:54:46.138Z,0.88
2023-02-27T09:57:46.291Z,1.23
2023-02-27T10:00:40.190Z,1.73
2023-02-27T10:04:09.395Z,1.27
2023-02-27T10:07:09.998Z,1.20
2023-02-27T10:10:39.193Z,1.10
2023-02-27T10:13:47.214Z,1.10
2023-02-27T10:16:34.549Z,1.27
2023-02-27T10:19:28.431Z,1.17
2023-02-27T10:22:20.077Z,1.30
2023-02-27T10:25:25.006Z,1.08
2023-02-27T10:28:18.724Z,1.13
2023-02-27T10:31:17.837Z,0.75
2023-02-27T10:34:03.856Z,0.90
2023-02-27T10:37:46.944Z,1.00
2023-02-27T10:40:36.278Z,0.75
2023-02-27T10:43:21.683Z,0.98
2023-02-27T10:46:26.676Z,1.00
2023-02-27T10:49:19.820Z,1.42
2023-02-27T10:52:07.579Z,0.80
2023-02-27T10:54:52.993Z,0.80
2023-02-27T10:57:42.685Z,1.10
2023-02-27T11:00:54.157Z,1.20
2023-02-27T11:03:42.237Z,1.05
2023-02-27T11:06:27.961Z,1.10
2023-02-27T11:09:43.182Z,1.20
2023-02-27T11:12:35.088Z,1.00
2023-02-27T11:15:26.170Z,1.00
2023-02-27T11:18:28.556Z,0.85
2023-02-27T11:21:23.692Z,0.98
2023-02-27T11:24:19.653Z,0.70
2023-02-27T11:27:22.397Z,0.65
2023-02-27T11:30:28.992Z,0.52
2023-02-27T11:33:20.426Z,0.70
2023-02-27T11:36:06.463Z,1.20
2023-02-27T11:38:56.498Z,0.60
2023-02-27T11:41:44.766Z,0.50
2023-02-27T11:44:50.908Z,0.75
2023-02-27T11:47:40.276Z,0.80
2023-02-27T11:50:43.508Z,0.55
2023-02-27T11:53:57.090Z,0.60
2023-02-27T11:56:47.417Z,0.60
2023-02-27T11:59:44.293Z,0.88
2023-02-27T12:02:56.203Z,0.90
2023-02-27T12:05:46.587Z,1.00
2023-02-27T12:08:37.953Z,0.98
2023-02-27T12:11:29.728Z,1.02
2023-02-27T12:14:26.646Z,1.08
2023-02-27T12:17:28.672Z,0.82
2023-02-27T12:20:21.546Z,0.60
2023-02-27T12:23:27.207Z,0.75
2023-02-27T12:26:27.332Z,0.60
2023-02-27T12:29:25.674Z,0.60
2023-02-27T12:32:21.041Z,0.50
2023-02-27T12:35:24.604Z,0.52
2023-02-27T12:38:14.958Z,1.05
2023-02-27T12:41:27.413Z,0.50
2023-02-27T12:44:41.851Z,0.50
2023-02-27T12:47:42.438Z,0.70
2023-02-27T12:50:45.088Z,0.90
2023-02-27T12:53:55.434Z,1.10
2023-02-27T12:56:49.667Z,1.00
2023-02-27T12:59:48.478Z,0.90
2023-02-27T13:03:01.657Z,1.20
2023-02-27T13:09:08.468Z,0.93
2023-02-27T13:12:25.476Z,1.27
2023-02-27T13:15:27.326Z,1.10
2023-02-27T13:18:40.077Z,1.00
2023-02-27T13:21:25.687Z,0.73
2023-02-27T13:24:26.152Z,1.08
2023-02-27T13:27:29.071Z,1.15
2023-02-27T13:30:23.627Z,0.90
2023-02-27T13:33:34.028Z,0.90
2023-02-27T13:36:38.968Z,1.08
2023-02-27T13:39:46.857Z,0.98
2023-02-27T13:42:33.080Z,1.27
2023-02-27T13:45:56.844Z,1.17
2023-02-27T13:48:43.904Z,1.00
2023-02-27T13:51:35.645Z,0.90
2023-02-27T13:54:25.147Z,1.30
2023-02-27T13:57:28.360Z,1.02
2023-02-27T14:00:21.277Z,1.08
2023-02-27T14:03:21.974Z,1.10
2023-02-27T14:06:11.115Z,1.25
2023-02-27T14:09:08.807Z,0.90
2023-02-27T14:12:03.531Z,0.90
2023-02-27T14:14:50.527Z,1.02
2023-02-27T14:17:36.096Z,0.82
2023-02-27T14:20:27.000Z,1.02
2023-02-27T14:23:16.016Z,1.00
2023-02-27T14:26:24.078Z,0.90
2023-02-27T14:29:18.173Z,1.00
2023-02-27T14:32:09.030Z,0.80
2023-02-27T14:34:54.755Z,0.93
2023-02-27T14:37:40.373Z,0.98
2023-02-27T14:40:36.715Z,0.70
2023-02-27T14:43:25.247Z,1.17
2023-02-27T14:46:38.438Z,0.90
2023-02-27T14:49:32.215Z,1.10
2023-02-27T14:52:23.731Z,0.90
2023-02-27T14:55:15.672Z,0.82
2023-02-27T14:58:17.351Z,0.80
2023-02-27T15:01:08.777Z,1.45
2023-02-27T15:03:57.660Z,0.80
2023-02-27T15:06:45.660Z,0.68
2023-02-27T15:09:42.783Z,0.70
2023-02-27T15:12:28.774Z,0.95
2023-02-27T15:15:19.632Z,0.85
2023-02-27T15:18:13.588Z,0.68
2023-02-27T15:20:59.381Z,0.90
2023-02-27T15:23:53.058Z,0.70
2023-02-27T15:26:40.377Z,0.90
2023-02-27T15:29:32.105Z,0.85
2023-02-27T15:32:26.020Z,0.60
2023-02-27T15:35:23.858Z,0.63
2023-02-27T15:38:24.608Z,0.90
2023-02-27T15:41:13.428Z,0.60
2023-02-27T15:43:58.939Z,0.90
2023-02-27T15:46:46.007Z,0.63
2023-02-27T15:49:31.152Z,0.68
2023-02-27T15:52:21.288Z,0.55
2023-02-27T15:55:15.161Z,0.70
2023-02-27T15:58:03.823Z,0.70
2023-02-27T16:01:00.451Z,0.98
2023-02-27T16:03:48.312Z,0.90
2023-02-27T16:06:37.075Z,0.60
2023-02-27T16:09:34.937Z,0.43
2023-02-27T16:12:33.905Z,0.57
2023-02-27T16:15:34.499Z,0.57
2023-02-27T16:18:34.734Z,0.50
2023-02-27T16:21:25.246Z,0.60
2023-02-27T16:24:40.539Z,0.60
2023-02-27T16:27:28.463Z,0.50
2023-02-27T16:30:16.439Z,0.60
2023-02-27T16:33:02.111Z,0.73
2023-02-27T16:35:47.708Z,0.60
2023-02-27T16:38:33.182Z,0.60
2023-02-27T16:41:21.476Z,0.50
2023-02-27T16:44:07.052Z,0.80
2023-02-27T16:46:53.717Z,0.50
2023-02-27T16:49:40.303Z,0.50
2023-02-27T16:52:25.480Z,0.60
2023-02-27T16:55:10.852Z,0.70
2023-02-27T16:57:56.381Z,0.60
2023-02-27T17:00:42.366Z,0.70
2023-02-27T17:03:29.047Z,0.75
2023-02-27T17:06:15.381Z,0.50
2023-02-27T17:09:00.890Z,0.45
2023-02-27T17:11:46.337Z,0.40
2023-02-27T17:14:31.543Z,0.52
2023-02-27T17:17:16.972Z,0.40
2023-02-27T17:20:05.397Z,0.57
2023-02-27T17:22:50.844Z,0.60
2023-02-27T17:25:35.910Z,0.47
2023-02-27T17:28:22.094Z,0.63
2023-02-27T17:31:11.705Z,0.65
2023-02-27T17:33:57.014Z,0.60
2023-02-27T17:36:42.869Z,0.47
2023-02-27T17:39:28.113Z,0.50
2023-02-27T17:42:16.486Z,0.63
2023-02-27T17:45:05.417Z,0.77
2023-02-27T17:47:50.857Z,0.77
2023-02-27T17:50:36.517Z,0.60
2023-02-27T17:53:21.597Z,0.60
2023-02-27T17:56:08.820Z,0.52
2023-02-27T17:58:54.058Z,0.70
2023-02-27T18:01:39.421Z,0.50
2023-02-27T18:04:24.966Z,0.50
2023-02-27T18:07:10.390Z,0.60
2023-02-27T18:09:57.463Z,0.65
2023-02-27T18:12:43.243Z,0.60
2023-02-27T18:15:29.044Z,0.60
2023-02-27T18:18:14.503Z,0.60
2023-02-27T18:21:06.529Z,0.80
2023-02-27T18:23:52.463Z,0.60
2023-02-27T18:26:38.539Z,0.50
2023-02-27T18:29:24.002Z,0.65
2023-02-27T18:32:09.573Z,0.70
2023-02-27T18:34:54.954Z,0.60
2023-02-27T18:37:41.032Z,0.60
2023-02-27T18:40:26.394Z,0.60
2023-02-27T18:43:11.818Z,0.70
2023-02-27T18:45:57.393Z,0.52
2023-02-27T18:48:46.565Z,0.70
2023-02-27T18:51:31.664Z,0.75
2023-02-27T18:54:17.562Z,0.80
2023-02-27T18:57:02.722Z,0.70
2023-02-27T18:59:48.164Z,0.75
2023-02-27T19:02:33.848Z,0.80
2023-02-27T19:05:18.942Z,0.70
2023-02-27T19:08:04.504Z,0.60
2023-02-27T19:10:49.878Z,0.70
2023-02-27T19:13:35.331Z,0.85
2023-02-27T19:16:20.928Z,0.70
2023-02-27T19:19:08.717Z,0.70
2023-02-27T19:21:54.750Z,0.85
2023-02-27T19:24:39.926Z,0.93
2023-02-27T19:27:25.385Z,0.73
2023-02-27T19:30:11.341Z,0.80
2023-02-27T19:32:56.705Z,0.65
2023-02-27T19:35:43.643Z,0.90
2023-02-27T19:38:28.997Z,0.70
2023-02-27T19:41:16.808Z,0.82
2023-02-27T19:44:02.050Z,0.90
2023-02-27T19:46:51.264Z,0.90
2023-02-27T19:49:37.258Z,0.68
2023-02-27T19:52:22.672Z,0.80
2023-02-27T19:55:08.452Z,0.70
2023-02-27T19:57:53.860Z,0.93
2023-02-27T20:00:40.038Z,0.63
2023-02-27T20:03:25.652Z,0.80
2023-02-27T20:06:20.290Z,0.80
2023-02-27T20:09:05.744Z,0.80
2023-02-27T20:11:53.814Z,0.95
2023-02-27T20:14:40.170Z,0.82
2023-02-27T20:17:25.450Z,1.05
2023-02-27T20:20:11.695Z,0.55
2023-02-27T20:22:58.606Z,0.88
2023-02-27T20:25:44.163Z,0.90
2023-02-27T20:28:29.677Z,0.82
2023-02-27T20:31:19.025Z,1.25
2023-02-27T20:34:06.047Z,0.77
2023-02-27T20:36:51.944Z,0.80
2023-02-27T20:39:36.922Z,1.17
2023-02-27T20:42:22.256Z,0.80
2023-02-27T20:45:08.122Z,0.90
2023-02-27T20:47:53.878Z,0.80
2023-02-27T20:50:39.248Z,1.40
2023-02-27T20:53:26.309Z,0.90
2023-02-27T20:56:12.328Z,0.90
2023-02-27T20:58:59.604Z,0.82
2023-02-27T21:01:51.128Z,1.27
2023-02-27T21:04:43.648Z,0.90
2023-02-27T21:07:29.058Z,0.80
2023-02-27T21:10:14.491Z,0.82
2023-02-27T21:12:59.855Z,0.90
2023-02-27T21:15:45.857Z,0.90
2023-02-27T21:18:32.331Z,1.05
2023-02-27T21:21:21.015Z,0.90
2023-02-27T21:24:06.824Z,1.00
2023-02-27T21:26:52.166Z,1.15
2023-02-27T21:29:38.467Z,1.20
2023-02-27T21:32:23.772Z,0.98
2023-02-27T21:35:09.760Z,1.20
2023-02-27T21:37:55.833Z,1.20
2023-02-27T21:40:41.219Z,1.45
2023-02-27T21:43:26.790Z,1.10
2023-02-27T21:46:13.180Z,0.93
2023-02-27T21:48:58.877Z,0.80
2023-02-27T21:51:44.363Z,0.88
2023-02-27T21:54:29.951Z,0.93
2023-02-27T21:57:15.411Z,1.15
2023-02-27T22:00:00.989Z,0.80
2023-02-27T22:02:46.672Z,0.88
2023-02-27T22:05:31.990Z,1.10
2023-02-27T22:08:17.480Z,1.13
2023-02-27T22:11:03.581Z,1.10
2023-02-27T22:13:48.985Z,0.98
2023-02-27T22:16:34.984Z,1.20
2023-02-27T22:19:21.862Z,1.00
2023-02-27T22:22:07.494Z,1.20
2023-02-27T22:24:52.895Z,1.17
2023-02-27T22:27:38.504Z,1.20
2023-02-27T22:30:23.971Z,1.05
2023-02-27T22:33:10.913Z,1.40
2023-02-27T22:35:56.495Z,1.20
2023-02-27T22:38:42.878Z,1.10
2023-02-27T22:41:31.275Z,1.00
2023-02-27T22:44:17.230Z,1.15
2023-02-27T22:47:02.671Z,1.20
2023-02-27T22:49:50.961Z,1.17
2023-02-27T22:52:37.278Z,1.17
2023-02-27T22:55:22.975Z,0.93
2023-02-27T22:58:08.596Z,1.10
2023-02-27T23:00:54.113Z,0.95
2023-02-27T23:03:41.530Z,1.30
2023-02-27T23:06:31.791Z,1.20
2023-02-27T23:09:22.148Z,1.15
2023-02-27T23:12:07.816Z,1.10
2023-02-27T23:14:53.169Z,2.55
2023-02-27T23:17:51.964Z,1.80
2023-02-27T23:20:42.128Z,2.33
2023-02-27T23:23:28.471Z,1.90
2023-02-27T23:26:14.071Z,2.10
2023-02-27T23:28:59.442Z,1.30
2023-02-27T23:31:45.125Z,1.30
2023-02-27T23:34:43.822Z,1.30
2023-02-27T23:37:34.538Z,1.67
2023-02-27T23:40:21.308Z,1.30
2023-02-27T23:43:25.417Z,1.75
2023-02-27T23:46:16.337Z,1.23
2023-02-27T23:49:02.080Z,1.45
2023-02-27T23:51:47.397Z,1.00
2023-02-27T23:54:32.611Z,1.40
2023-02-27T23:57:18.171Z,1.33
